Time;durP1;ratioP1;P1;durP2;ratioP2;P2;SDS_P1;SDS_P2;PMS_P1;PMS_P2;Temp;Humidity;BMP_temperature;BMP_pressure;BME280_temperature;BME280_humidity;BME280_pressure;Samples;Min_cycle;Max_cycle;Signal;HPM_P1;HPM_P2
2022/12/18 00:02:15;;;;;;;79.70;27.30;;;;;;;-3.52;100.00;102799.09;2615349;36;20034;-65
2022/12/18 00:04:43;;;;;;;70.47;26.85;;;;;;;-3.54;100.00;102803.44;2615139;36;20030;-64
2022/12/18 00:07:11;;;;;;;72.85;25.27;;;;;;;-3.59;100.00;102799.03;2614579;36;20046;-64
2022/12/18 00:09:40;;;;;;;83.60;28.00;;;;;;;-3.70;100.00;102781.47;2610897;36;20069;-62
2022/12/18 00:12:09;;;;;;;74.97;27.07;;;;;;;-3.73;100.00;102783.25;2612471;36;20038;-65
2022/12/18 00:14:37;;;;;;;73.95;26.35;;;;;;;-3.71;100.00;102786.75;2613971;36;20030;-60
2022/12/18 00:17:06;;;;;;;81.43;28.10;;;;;;;-3.73;100.00;102791.13;2609935;36;20042;-62
2022/12/18 00:19:37;;;;;;;84.55;30.02;;;;;;;-3.69;100.00;102800.81;2613203;36;20037;-63
2022/12/18 00:22:06;;;;;;;81.57;28.17;;;;;;;-3.84;100.00;102785.84;2614370;36;20069;-63
2022/12/18 00:24:34;;;;;;;76.47;28.58;;;;;;;-3.84;100.00;102787.59;2614171;36;20579;-65
2022/12/18 00:27:03;;;;;;;76.00;28.83;;;;;;;-3.82;100.00;102780.59;2612899;31;22423;-65
2022/12/18 00:29:31;;;;;;;88.47;30.02;;;;;;;-3.83;100.00;102784.97;2612525;36;20061;-63
2022/12/18 00:31:59;;;;;;;72.95;27.92;;;;;;;-3.88;100.00;102766.53;2613158;36;20035;-63
2022/12/18 00:34:27;;;;;;;77.85;29.08;;;;;;;-3.83;100.00;102774.44;2613003;36;20038;-64
2022/12/18 00:36:58;;;;;;;78.20;26.27;;;;;;;-3.94;100.00;102769.16;2613463;36;20577;-64
2022/12/18 00:39:27;;;;;;;85.53;29.20;;;;;;;-3.93;100.00;102773.56;2601963;36;20045;-61
2022/12/18 00:44:38;;;;;;;81.97;29.13;;;;;;;-3.97;100.00;102781.44;2612864;36;20034;-62
2022/12/18 00:47:06;;;;;;;74.50;26.95;;;;;;;-4.00;100.00;102781.44;2612182;31;20068;-62
2022/12/18 00:49:35;;;;;;;81.57;27.63;;;;;;;-3.99;100.00;102781.44;2612125;36;20031;-64
2022/12/18 00:52:06;;;;;;;84.50;28.40;;;;;;;-4.13;100.00;102775.25;2612302;31;20034;-64
2022/12/18 00:54:34;;;;;;;66.05;26.65;;;;;;;-4.07;100.00;102781.38;2611613;36;20053;-63
2022/12/18 00:57:02;;;;;;;68.80;26.08;;;;;;;-4.22;100.00;102783.97;2612469;36;20034;-63
2022/12/18 00:59:31;;;;;;;72.65;28.23;;;;;;;-4.20;100.00;102786.63;2611128;31;20035;-65
2022/12/18 01:01:59;;;;;;;73.70;27.55;;;;;;;-4.10;100.00;102791.91;2613787;36;20069;-63
2022/12/18 01:04:28;;;;;;;76.43;26.05;;;;;;;-4.09;100.00;102792.81;2613943;36;20041;-59
2022/12/18 01:06:56;;;;;;;76.60;28.50;;;;;;;-4.20;100.00;102783.97;2588078;36;20038;-61
2022/12/18 01:09:27;;;;;;;67.45;26.90;;;;;;;-4.24;100.00;102783.06;2611311;36;20299;-61
2022/12/18 01:11:55;;;;;;;65.78;26.08;;;;;;;-4.28;100.00;102766.44;2613063;36;20061;-61
2022/12/18 01:14:24;;;;;;;75.93;28.02;;;;;;;-4.31;100.00;102766.41;2613107;36;20095;-62
2022/12/18 01:16:52;;;;;;;70.13;27.05;;;;;;;-4.35;100.00;102762.00;2611614;31;20034;-62
2022/12/18 01:19:20;;;;;;;71.75;26.02;;;;;;;-4.36;100.00;102777.78;2613270;31;20038;-61
2022/12/18 01:21:51;;;;;;;72.07;26.10;;;;;;;-4.42;100.00;102782.16;2613933;36;20038;-62
2022/12/18 01:24:19;;;;;;;77.13;26.95;;;;;;;-4.59;100.00;102776.78;2611602;31;20034;-62
2022/12/18 01:26:50;;;;;;;71.85;25.20;;;;;;;-4.63;100.00;102779.41;2613581;36;20038;-62
2022/12/18 01:29:19;;;;;;;76.90;26.63;;;;;;;-4.70;100.00;102788.13;2615044;36;20435;-61
2022/12/18 01:31:47;;;;;;;77.95;26.95;;;;;;;-4.78;100.00;102781.06;2614678;36;20436;-62
2022/12/18 01:34:15;;;;;;;74.32;27.80;;;;;;;-4.82;100.00;102783.66;2613899;31;20027;-61
2022/12/18 01:36:44;;;;;;;83.40;29.10;;;;;;;-4.76;100.00;102789.81;2614789;31;20081;-61
2022/12/18 01:39:15;;;;;;;79.93;26.67;;;;;;;-4.84;100.00;102785.41;2614180;36;20035;-61
2022/12/18 01:45:02;;;;;;;76.65;26.38;;;;;;;-4.77;100.00;102788.09;2614089;36;20447;-62
2022/12/18 01:47:39;;;;;;;75.82;26.05;;;;;;;-4.76;100.00;102778.44;2614201;36;20540;-61
2022/12/18 01:52:56;;;;;;;82.38;28.05;;;;;;;-4.72;100.00;102790.72;2614345;36;20030;-64
2022/12/18 01:55:27;;;;;;;79.97;27.20;;;;;;;-4.73;100.00;102794.22;2613162;36;20039;-61
2022/12/18 01:57:57;;;;;;;73.15;28.27;;;;;;;-4.84;100.00;102794.16;2613887;36;20035;-62
2022/12/18 02:00:29;;;;;;;69.47;26.38;;;;;;;-4.87;100.00;102793.25;2614386;36;20039;-61
2022/12/18 02:02:58;;;;;;;75.63;27.42;;;;;;;-4.91;100.00;102805.50;2613180;36;20039;-61
2022/12/18 02:05:37;;;;;;;77.57;25.55;;;;;;;-4.97;100.00;102808.94;2613971;36;20041;-62
2022/12/18 02:08:13;;;;;;;74.88;28.42;;;;;;;-4.98;100.00;102811.56;2612613;36;20034;-61
2022/12/18 02:10:49;;;;;;;67.80;25.63;;;;;;;-5.04;100.00;102808.88;2612723;36;20041;-61
2022/12/18 02:13:24;;;;;;;71.22;25.63;;;;;;;-5.13;100.00;102821.06;2614050;36;20121;-61
2022/12/18 02:16:06;;;;;;;65.20;24.77;;;;;;;-5.16;100.00;102825.44;2614359;36;20030;-63
2022/12/18 02:18:39;;;;;;;68.57;25.23;;;;;;;-5.13;100.00;102821.06;2613776;36;20034;-60
2022/12/18 02:21:15;;;;;;;70.97;25.75;;;;;;;-5.16;100.00;102833.31;2613985;36;20034;-62
2022/12/18 02:23:58;;;;;;;73.50;26.40;;;;;;;-5.21;100.00;102837.63;2612975;36;20035;-61
2022/12/18 02:26:34;;;;;;;63.90;23.63;;;;;;;-5.26;100.00;102834.94;2611795;36;20177;-62
2022/12/18 02:29:08;;;;;;;62.78;26.42;;;;;;;-5.30;100.00;102833.16;2614101;36;20035;-62
2022/12/18 02:31:42;;;;;;;63.55;24.05;;;;;;;-5.35;100.00;102825.25;2613824;36;20038;-61
2022/12/18 02:34:13;;;;;;;62.55;24.70;;;;;;;-5.30;100.00;102834.06;2613412;36;20035;-61
2022/12/18 02:36:46;;;;;;;61.30;24.00;;;;;;;-5.24;100.00;102832.34;2614652;36;20042;-62
2022/12/18 02:39:17;;;;;;;67.30;26.40;;;;;;;-5.23;100.00;102834.09;2613540;36;20031;-62
2022/12/18 02:41:49;;;;;;;60.20;24.92;;;;;;;-5.46;100.00;102813.78;2614450;36;20023;-62
2022/12/18 02:44:18;;;;;;;60.72;24.70;;;;;;;-5.51;100.00;102805.84;2614328;31;20086;-62
2022/12/18 02:46:49;;;;;;;59.60;24.23;;;;;;;-5.51;100.00;102799.72;2614243;36;20035;-61
2022/12/18 02:49:34;;;;;;;62.10;26.42;;;;;;;-5.58;100.00;102796.19;2614256;36;20042;-61
2022/12/18 02:52:13;;;;;;;61.58;24.63;;;;;;;-5.58;100.00;102792.66;2614078;31;20038;-61
2022/12/18 02:54:54;;;;;;;68.40;24.65;;;;;;;-5.60;100.00;102789.16;2613878;31;20042;-61
2022/12/18 02:57:35;;;;;;;61.17;25.10;;;;;;;-5.68;100.00;102782.09;2614462;36;20034;-64
2022/12/18 03:00:10;;;;;;;63.40;24.67;;;;;;;-5.77;100.00;102786.34;2614625;36;20041;-62
2022/12/18 03:02:44;;;;;;;60.22;23.42;;;;;;;-5.79;100.00;102773.22;2614199;36;20041;-61
2022/12/18 03:05:17;;;;;;;59.85;23.75;;;;;;;-5.73;100.00;102775.91;2615410;31;20440;-62
2022/12/18 03:07:51;;;;;;;66.55;25.55;;;;;;;-5.72;100.00;102788.16;2613854;31;20447;-62
2022/12/18 03:10:26;;;;;;;65.30;24.38;;;;;;;-5.74;100.00;102774.16;2614447;31;20518;-61
2022/12/18 03:13:03;;;;;;;65.00;23.98;;;;;;;-5.73;100.00;102780.28;2613824;36;20030;-61
2022/12/18 03:15:36;;;;;;;62.25;24.95;;;;;;;-5.80;100.00;102784.56;2615511;36;20546;-62
2022/12/18 03:18:10;;;;;;;65.35;25.58;;;;;;;-5.85;100.00;102778.41;2606676;36;20038;-63
2022/12/18 03:20:42;;;;;;;61.53;23.33;;;;;;;-5.79;100.00;102774.97;2614445;31;20057;-61
2022/12/18 03:23:14;;;;;;;67.40;25.85;;;;;;;-5.84;100.00;102769.69;2614069;36;20556;-62
2022/12/18 03:25:46;;;;;;;65.53;24.42;;;;;;;-5.89;100.00;102784.47;2613774;36;20042;-61
2022/12/18 03:28:21;;;;;;;58.50;22.95;;;;;;;-5.91;100.00;102779.22;2613732;36;20038;-62
2022/12/18 03:30:54;;;;;;;59.55;24.48;;;;;;;-6.04;100.00;102772.97;2615101;31;20041;-61
2022/12/18 03:33:28;;;;;;;56.90;24.73;;;;;;;-6.02;100.00;102763.41;2612721;36;20577;-64
2022/12/18 03:35:57;;;;;;;56.92;22.73;;;;;;;-6.03;100.00;102766.88;2614412;36;20038;-62
2022/12/18 03:38:26;;;;;;;62.38;24.10;;;;;;;-5.89;100.00;102763.50;2614776;36;20038;-61
2022/12/18 03:41:02;;;;;;;57.30;23.95;;;;;;;-5.92;100.00;102750.34;2614890;36;20427;-62
2022/12/18 03:43:42;;;;;;;56.72;22.80;;;;;;;-6.03;100.00;102751.16;2613323;36;20162;-61
2022/12/18 03:46:17;;;;;;;63.65;23.08;;;;;;;-6.02;100.00;102752.94;2614699;36;20030;-61
2022/12/18 03:48:49;;;;;;;61.05;24.75;;;;;;;-6.13;100.00;102757.16;2614686;36;20035;-62
2022/12/18 03:51:25;;;;;;;56.30;22.77;;;;;;;-6.10;100.00;102759.81;2614605;36;20627;-62
2022/12/18 03:53:58;;;;;;;55.97;23.30;;;;;;;-6.07;100.00;102749.34;2614323;31;20038;-62
2022/12/18 03:56:29;;;;;;;62.45;24.42;;;;;;;-6.11;100.00;102747.59;2614194;36;20042;-62
2022/12/18 03:59:03;;;;;;;55.67;23.13;;;;;;;-6.18;100.00;102751.00;2614221;36;20057;-61
2022/12/18 04:01:36;;;;;;;67.60;26.70;;;;;;;-6.09;100.00;102745.00;2615108;36;20034;-63
2022/12/18 04:04:06;;;;;;;60.72;26.33;;;;;;;-6.16;100.00;102739.66;2614799;36;20038;-62
2022/12/18 04:06:36;;;;;;;58.13;23.73;;;;;;;-6.11;100.00;102742.34;2615416;36;20414;-61
2022/12/18 04:09:05;;;;;;;60.72;25.52;;;;;;;-6.10;100.00;102743.22;2615066;36;20034;-61
2022/12/18 04:11:33;;;;;;;61.28;24.88;;;;;;;-6.08;100.00;102734.50;2615582;36;20559;-62
2022/12/18 04:14:04;;;;;;;57.03;24.17;;;;;;;-6.14;100.00;102737.03;2615271;36;20566;-61
2022/12/18 04:16:32;;;;;;;48.97;22.27;;;;;;;-6.11;100.00;102738.81;2614968;36;20038;-61
2022/12/18 04:19:01;;;;;;;54.47;21.90;;;;;;;-6.14;100.00;102731.81;2615005;36;20045;-63
2022/12/18 04:21:29;;;;;;;50.63;22.38;;;;;;;-6.23;100.00;102736.94;2615362;36;20463;-62
2022/12/18 04:23:57;;;;;;;52.38;23.42;;;;;;;-6.27;100.00;102724.66;2615361;36;20085;-62
2022/12/18 04:26:26;;;;;;;56.63;22.45;;;;;;;-6.23;100.00;102726.47;2615205;31;20578;-62
2022/12/18 04:28:54;;;;;;;53.40;23.23;;;;;;;-6.16;100.00;102725.69;2615426;36;20031;-62
2022/12/18 04:31:25;;;;;;;48.40;21.45;;;;;;;-6.16;100.00;102723.94;2614466;36;20031;-63
2022/12/18 04:33:53;;;;;;;50.03;22.40;;;;;;;-6.33;100.00;102717.63;2615248;36;20035;-63
2022/12/18 04:36:21;;;;;;;50.88;23.45;;;;;;;-6.29;100.00;102708.06;2615051;36;20031;-62
2022/12/18 04:38:50;;;;;;;50.88;21.25;;;;;;;-6.16;100.00;102708.19;2614742;36;20046;-61
2022/12/18 04:41:18;;;;;;;46.45;20.17;;;;;;;-6.23;100.00;102711.63;2614380;36;20570;-61
2022/12/18 04:43:46;;;;;;;54.05;22.27;;;;;;;-6.24;100.00;102717.75;2615438;36;20420;-62
2022/12/18 04:46:15;;;;;;;42.85;20.45;;;;;;;-6.23;100.00;102716.00;2615344;36;20030;-61
2022/12/18 04:48:48;;;;;;;46.47;21.10;;;;;;;-6.27;100.00;102722.03;2614372;36;20023;-60
2022/12/18 04:51:17;;;;;;;51.28;22.67;;;;;;;-6.21;100.00;102720.38;2615509;36;20034;-60
2022/12/18 04:53:45;;;;;;;44.38;20.60;;;;;;;-6.21;100.00;102725.63;2614924;36;20034;-62
2022/12/18 04:56:16;;;;;;;47.50;20.27;;;;;;;-6.24;100.00;102722.06;2615518;36;20026;-61
2022/12/18 04:58:46;;;;;;;46.13;19.40;;;;;;;-6.27;100.00;102732.53;2614329;36;20038;-62
2022/12/18 05:01:16;;;;;;;47.83;20.63;;;;;;;-6.21;100.00;102735.25;2615461;36;20035;-61
2022/12/18 05:03:47;;;;;;;42.30;20.33;;;;;;;-6.26;100.00;102732.53;2615441;36;20404;-61
2022/12/18 05:06:16;;;;;;;44.47;20.20;;;;;;;-6.17;100.00;102742.25;2614951;36;20039;-62
2022/12/18 05:08:44;;;;;;;44.23;20.87;;;;;;;-6.08;100.00;102746.72;2614828;36;20027;-61
2022/12/18 05:11:15;;;;;;;38.65;19.55;;;;;;;-6.13;100.00;102759.78;2614414;36;20030;-62
2022/12/18 05:13:44;;;;;;;41.67;19.10;;;;;;;-6.16;100.00;102765.00;2615455;36;20062;-62
2022/12/18 05:16:13;;;;;;;42.15;19.90;;;;;;;-6.24;100.00;102766.63;2614712;36;20607;-61
2022/12/18 05:18:42;;;;;;;40.80;18.20;;;;;;;-6.29;100.00;102769.19;2614711;36;20030;-61
2022/12/18 05:21:13;;;;;;;39.10;18.95;;;;;;;-6.30;100.00;102777.03;2615221;36;20061;-61
2022/12/18 05:23:41;;;;;;;35.47;17.60;;;;;;;-6.38;100.00;102783.06;2614670;36;20034;-62
2022/12/18 05:26:10;;;;;;;41.13;18.02;;;;;;;-6.47;100.00;102793.44;2614305;36;20042;-62
2022/12/18 05:28:38;;;;;;;38.75;17.20;;;;;;;-6.58;100.00;102793.28;2614608;31;20030;-61
2022/12/18 05:31:07;;;;;;;38.07;18.50;;;;;;;-6.66;100.00;102804.53;2614817;36;20046;-62
2022/12/18 05:33:37;;;;;;;38.40;17.52;;;;;;;-6.71;100.00;102797.47;2615642;36;20439;-61
2022/12/18 05:36:07;;;;;;;36.97;17.10;;;;;;;-6.70;100.00;102800.97;2615008;36;20035;-61
2022/12/18 05:38:40;;;;;;;35.00;16.70;;;;;;;-6.73;100.00;102793.97;2614954;36;20038;-61
2022/12/18 05:41:10;;;;;;;39.58;17.90;;;;;;;-6.72;100.00;102794.84;2613815;36;20041;-61
2022/12/18 05:43:38;;;;;;;;;;;;;;;-6.73;100.00;102786.09;2614571;36;20030;-62
2022/12/18 05:46:08;;;;;;;34.30;17.55;;;;;;;-6.75;100.00;102779.09;2614965;36;20347;-61
2022/12/18 05:48:37;;;;;;;37.55;16.95;;;;;;;-6.78;100.00;102777.28;2614743;36;20166;-61
2022/12/18 05:51:10;;;;;;;34.25;17.05;;;;;;;-6.79;100.00;102774.66;2613946;36;20046;-62
2022/12/18 05:53:41;;;;;;;30.40;15.75;;;;;;;-6.84;100.00;102763.25;2615041;36;20035;-62
2022/12/18 05:56:12;;;;;;;34.30;15.45;;;;;;;-6.81;100.00;102771.16;2614652;36;20038;-61
2022/12/18 05:58:41;;;;;;;33.22;16.50;;;;;;;-6.81;100.00;102756.31;2613954;36;20042;-61
2022/12/18 06:01:11;;;;;;;35.42;16.58;;;;;;;-6.76;100.00;102757.22;2614575;36;20035;-61
2022/12/18 06:03:40;;;;;;;34.05;17.55;;;;;;;-6.78;100.00;102758.97;2614066;32;20057;-61
2022/12/18 06:06:16;;;;;;;33.70;15.88;;;;;;;-6.70;100.00;102759.97;2616112;36;20049;-61
2022/12/18 06:08:48;;;;;;;32.53;15.60;;;;;;;-6.75;100.00;102753.75;2613820;36;20038;-62
2022/12/18 06:11:18;;;;;;;34.65;15.75;;;;;;;-6.78;100.00;102739.78;2614866;36;20435;-61
2022/12/18 06:13:46;;;;;;;32.55;16.40;;;;;;;-6.83;100.00;102744.94;2615467;36;20034;-60
2022/12/18 06:16:15;;;;;;;33.30;16.20;;;;;;;-6.83;100.00;102751.91;2615736;31;20029;-62
2022/12/18 06:18:43;;;;;;;34.65;16.20;;;;;;;-6.82;100.00;102745.81;2614348;36;20037;-61
2022/12/18 06:21:11;;;;;;;31.48;15.63;;;;;;;-6.86;100.00;102742.25;2616001;31;20035;-62
2022/12/18 06:23:40;;;;;;;30.92;15.48;;;;;;;-6.85;100.00;102741.41;2616004;36;20039;-62
2022/12/18 06:26:13;;;;;;;28.50;14.77;;;;;;;-6.89;100.00;102745.72;2616086;36;20023;-61
2022/12/18 06:28:42;;;;;;;31.73;15.07;;;;;;;-6.92;100.00;102739.56;2615748;36;20154;-62
2022/12/18 06:31:11;;;;;;;29.15;14.88;;;;;;;-6.87;100.00;102740.50;2615413;36;20820;-62
2022/12/18 06:33:40;;;;;;;29.35;15.32;;;;;;;-6.94;100.00;102726.44;2615567;36;20034;-62
2022/12/18 06:36:11;;;;;;;27.88;14.15;;;;;;;-6.94;100.00;102725.56;2616411;36;20038;-62
2022/12/18 06:38:43;;;;;;;30.35;15.48;;;;;;;-6.94;100.00;102715.09;2616619;36;20439;-62
2022/12/18 06:41:16;;;;;;;29.27;14.48;;;;;;;-6.96;100.00;102716.81;2615479;31;20072;-62
2022/12/18 06:43:45;;;;;;;31.02;16.23;;;;;;;-6.93;100.00;102711.63;2615410;36;20038;-61
2022/12/18 06:46:14;;;;;;;29.65;15.75;;;;;;;-6.90;100.00;102711.69;2615899;36;20424;-61
2022/12/18 06:48:42;;;;;;;30.02;15.25;;;;;;;-6.96;100.00;102706.34;2613477;31;20030;-62
2022/12/18 06:51:11;;;;;;;29.23;15.43;;;;;;;-6.95;100.00;102693.28;2615561;36;20121;-61
2022/12/18 06:53:39;;;;;;;29.80;16.10;;;;;;;-6.89;100.00;102700.31;2614766;36;20078;-62
2022/12/18 06:56:09;;;;;;;30.77;16.10;;;;;;;-6.83;100.00;102692.59;2615095;36;20419;-61
2022/12/18 06:58:40;;;;;;;26.17;14.43;;;;;;;-6.66;100.00;102695.41;2615078;36;20042;-61
2022/12/18 07:01:11;;;;;;;32.42;16.42;;;;;;;-6.71;100.00;102692.72;2615630;36;20061;-61
2022/12/18 07:03:40;;;;;;;29.52;16.35;;;;;;;-6.80;100.00;102692.63;2614420;36;20061;-62
2022/12/18 07:06:15;;;;;;;29.83;16.38;;;;;;;-6.76;100.00;102694.38;2615076;36;20039;-62
2022/12/18 07:08:43;;;;;;;29.70;15.60;;;;;;;-6.69;100.00;102693.63;2613329;36;20046;-62
2022/12/18 07:11:11;;;;;;;32.08;16.52;;;;;;;-6.62;100.00;102685.84;2613845;36;20034;-62
2022/12/18 07:13:42;;;;;;;30.85;16.20;;;;;;;-6.65;100.00;102684.06;2615333;36;20122;-62
2022/12/18 07:16:12;;;;;;;25.20;15.15;;;;;;;-6.59;100.00;102685.88;2615513;31;20042;-61
2022/12/18 07:18:41;;;;;;;29.48;16.45;;;;;;;-6.56;100.00;102680.69;2614563;36;20553;-62
2022/12/18 07:21:11;;;;;;;33.92;16.73;;;;;;;-6.45;100.00;102679.06;2614561;36;20035;-62
2022/12/18 07:23:39;;;;;;;35.25;17.80;;;;;;;-6.34;100.00;102672.19;2615461;36;20042;-61
2022/12/18 07:26:10;;;;;;;34.28;16.63;;;;;;;-6.14;100.00;102668.03;2614664;36;20030;-61
2022/12/18 07:28:39;;;;;;;33.03;17.02;;;;;;;-6.12;100.00;102669.81;2615353;36;20030;-61
2022/12/18 07:31:11;;;;;;;;;;;;;;;-6.01;100.00;102676.03;2615835;31;20436;-62
2022/12/18 07:33:39;;;;;;;29.35;15.68;;;;;;;-5.89;100.00;102676.97;2615182;36;20434;-61
2022/12/18 07:36:10;;;;;;;37.25;17.17;;;;;;;-5.82;100.00;102676.16;2615547;36;20599;-61
2022/12/18 07:38:38;;;;;;;32.45;16.35;;;;;;;-5.60;100.00;102671.97;2615598;36;20031;-62
2022/12/18 07:41:08;;;;;;;32.05;17.40;;;;;;;-5.48;100.00;102665.94;2615258;36;20035;-61
2022/12/18 07:43:37;;;;;;;33.05;16.80;;;;;;;-5.37;100.00;102664.28;2615918;36;20452;-61
2022/12/18 07:46:06;;;;;;;30.42;17.23;;;;;;;-5.30;100.00;102671.34;2613516;36;20041;-62
2022/12/18 07:48:37;;;;;;;33.58;18.35;;;;;;;-5.24;100.00;102656.47;2614864;36;20054;-61
2022/12/18 07:51:07;;;;;;;34.05;17.77;;;;;;;-5.24;100.00;102643.34;2615406;36;20551;-62
2022/12/18 07:53:37;;;;;;;31.10;16.13;;;;;;;-5.12;100.00;102632.94;2615593;36;20031;-61
2022/12/18 07:56:09;;;;;;;32.42;16.27;;;;;;;-5.10;100.00;102639.06;2615081;36;20069;-62
2022/12/18 07:58:38;;;;;;;30.60;17.55;;;;;;;-5.08;100.00;102629.44;2615664;36;20038;-60
2022/12/18 08:01:07;;;;;;;30.42;16.30;;;;;;;-5.05;100.00;102629.47;2615104;36;20037;-62
2022/12/18 08:03:40;;;;;;;32.55;17.90;;;;;;;-5.06;100.00;102638.22;2615197;36;20038;-62
2022/12/18 08:06:10;;;;;;;35.72;16.77;;;;;;;-5.08;100.00;102634.69;2615202;36;20030;-60
2022/12/18 08:08:41;;;;;;;32.75;17.42;;;;;;;-5.06;100.00;102638.22;2614336;36;20162;-61
2022/12/18 08:11:09;;;;;;;33.05;16.95;;;;;;;-5.03;100.00;102626.84;2614428;36;20057;-61
2022/12/18 08:13:37;;;;;;;31.50;16.50;;;;;;;-4.97;100.00;102619.88;2614870;36;20571;-61
2022/12/18 08:16:08;;;;;;;30.38;16.20;;;;;;;-4.97;100.00;102619.88;2614754;36;20169;-62
2022/12/18 08:18:40;;;;;;;32.20;16.63;;;;;;;-4.99;100.00;102608.50;2614432;36;20107;-61
2022/12/18 08:21:12;;;;;;;29.48;14.93;;;;;;;-4.98;100.00;102618.09;2615711;36;20065;-62
2022/12/18 08:23:41;;;;;;;31.67;15.98;;;;;;;-4.89;100.00;102619.03;2615031;36;20035;-61
2022/12/18 08:26:09;;;;;;;32.55;14.63;;;;;;;-4.88;100.00;102620.78;2614945;36;20440;-62
2022/12/18 08:28:38;;;;;;;33.17;15.82;;;;;;;-4.87;100.00;102617.28;2614783;36;20034;-62
2022/12/18 08:31:07;;;;;;;34.37;16.33;;;;;;;-4.73;100.00;102610.31;2615359;36;20138;-60
2022/12/18 08:33:36;;;;;;;29.00;14.88;;;;;;;-4.63;100.00;102612.09;2614535;36;20129;-61
2022/12/18 08:36:08;;;;;;;;;;;;;;;-4.54;100.00;102616.50;2615769;36;20108;-60
2022/12/18 08:38:36;;;;;;;31.70;15.27;;;;;;;-4.52;100.00;102620.03;2614599;36;19946;-62
2022/12/18 08:41:06;;;;;;;32.67;15.57;;;;;;;-4.40;100.00;102619.19;2614970;36;20093;-62
2022/12/18 08:46:18;;;;;;;27.55;14.32;;;;;;;-4.52;100.00;102648.06;2613160;36;20524;-62
2022/12/18 08:48:47;;;;;;;30.13;15.32;;;;;;;-4.48;100.00;102648.06;2615130;36;20062;-62
2022/12/18 08:51:19;;;;;;;28.38;13.73;;;;;;;-4.48;100.00;102647.19;2616016;31;20041;-62
2022/12/18 08:53:48;;;;;;;28.52;12.80;;;;;;;-4.55;100.00;102645.41;2614034;36;20034;-61
2022/12/18 08:56:18;;;;;;;29.05;14.02;;;;;;;-4.46;100.00;102645.44;2614630;36;20161;-61
2022/12/18 08:58:46;;;;;;;;;;;;;;;-4.39;100.00;102636.69;2614925;36;20528;-62
2022/12/18 09:01:15;;;;;;;30.30;14.15;;;;;;;-4.41;100.00;102644.56;2615162;36;19951;-61
2022/12/18 09:03:43;;;;;;;27.98;14.43;;;;;;;-4.28;100.00;102639.38;2614354;36;20554;-61
2022/12/18 09:06:15;;;;;;;28.80;14.00;;;;;;;-4.09;100.00;102635.00;2614907;31;20038;-62
2022/12/18 09:08:47;;;;;;;24.42;13.38;;;;;;;-4.16;100.00;102630.63;2615042;36;20022;-62
2022/12/18 09:11:17;;;;;;;26.35;13.82;;;;;;;-4.06;100.00;102621.88;2615428;36;20034;-62
2022/12/18 09:13:48;;;;;;;25.65;13.30;;;;;;;-3.90;100.00;102622.72;2615050;36;20103;-61
2022/12/18 09:16:17;;;;;;;25.40;13.57;;;;;;;-3.83;100.00;102615.72;2615597;36;20447;-62
2022/12/18 09:18:45;;;;;;;29.67;13.83;;;;;;;-3.82;100.00;102617.50;2613868;36;20412;-62
2022/12/18 09:21:15;;;;;;;30.08;14.15;;;;;;;-3.69;100.00;102619.22;2614787;36;20299;-62
2022/12/18 09:23:47;;;;;;;26.13;12.57;;;;;;;-3.67;100.00;102635.00;2615058;36;20077;-61
2022/12/18 09:26:15;;;;;;;26.13;13.48;;;;;;;-3.61;100.00;102632.38;2614178;36;20045;-62
2022/12/18 09:28:43;;;;;;;26.90;12.40;;;;;;;-3.57;100.00;102635.00;2614529;36;20031;-61
2022/12/18 09:31:18;;;;;;;32.05;15.30;;;;;;;-3.42;100.00;102627.97;2614607;36;20041;-62
2022/12/18 09:33:47;;;;;;;25.52;12.95;;;;;;;-3.50;100.00;102624.44;2614016;36;20031;-61
2022/12/18 09:36:18;;;;;;;27.07;13.17;;;;;;;-3.41;100.00;102619.19;2615551;36;20081;-61
2022/12/18 09:38:49;;;;;;;29.73;14.95;;;;;;;-3.30;100.00;102614.75;2614718;36;20050;-62
2022/12/18 09:41:34;;;;;;;30.23;13.82;;;;;;;-3.28;100.00;102615.66;2615267;36;20030;-62
2022/12/18 09:44:05;;;;;;;28.52;13.90;;;;;;;-3.34;100.00;102636.75;2615327;36;20439;-62
2022/12/18 09:46:37;;;;;;;27.92;12.95;;;;;;;-3.24;100.00;102616.50;2614932;36;20507;-61
2022/12/18 09:49:13;;;;;;;28.67;13.68;;;;;;;-3.25;100.00;102605.09;2614537;36;20032;-61
2022/12/18 09:51:46;;;;;;;27.50;13.48;;;;;;;-3.22;100.00;102599.81;2615110;36;20419;-62
2022/12/18 09:54:23;;;;;;;25.23;12.98;;;;;;;-3.12;100.00;102589.25;2614700;36;20587;-61
2022/12/18 09:56:51;;;;;;;22.38;12.35;;;;;;;-3.05;100.00;102593.63;2615432;31;20034;-63
2022/12/18 09:59:26;;;;;;;34.25;14.77;;;;;;;-2.99;100.00;102588.31;2616052;36;20559;-62
2022/12/18 10:01:54;;;;;;;34.63;14.18;;;;;;;-2.96;100.00;102579.53;2614548;36;20038;-63
2022/12/18 10:04:23;;;;;;;26.15;12.43;;;;;;;-2.95;100.00;102582.16;2614964;36;20023;-63
2022/12/18 10:06:57;;;;;;;28.88;12.18;;;;;;;-2.78;100.00;102562.75;2616121;36;20030;-61
2022/12/18 10:09:35;;;;;;;24.45;12.32;;;;;;;-2.73;100.00;102559.22;2616291;36;20022;-64
2022/12/18 10:12:11;;;;;;;29.00;12.47;;;;;;;-2.65;100.00;102559.16;2615850;36;20034;-62
2022/12/18 10:14:49;;;;;;;26.10;13.02;;;;;;;-2.70;100.00;102558.31;2614933;36;20030;-61
2022/12/18 10:17:29;;;;;;;19.63;11.10;;;;;;;-2.84;100.00;102564.56;2615304;36;20034;-62
2022/12/18 10:19:58;;;;;;;;;;;;;;;-2.71;100.00;102554.81;2616752;36;20164;-63
2022/12/18 10:22:41;;;;;;;26.75;12.60;;;;;;;-2.49;100.00;102550.28;2615831;36;19953;-61
2022/12/18 10:25:24;;;;;;;26.73;10.93;;;;;;;-2.56;100.00;102547.69;2616062;36;20038;-62
2022/12/18 10:27:58;;;;;;;23.17;11.75;;;;;;;-2.41;100.00;102538.81;2616037;36;20035;-62
2022/12/18 10:30:28;;;;;;;20.38;10.55;;;;;;;-2.41;100.00;102542.31;2615075;36;20038;-60
2022/12/18 10:32:56;;;;;;;20.77;10.70;;;;;;;-2.37;100.00;102540.53;2615607;31;20038;-61
2022/12/18 10:35:28;;;;;;;23.10;10.90;;;;;;;-2.26;100.00;102536.06;2615382;36;20038;-61
2022/12/18 10:38:23;;;;;;;24.30;11.65;;;;;;;-2.24;100.00;102523.72;2613798;36;20027;-62
2022/12/18 10:40:56;;;;;;;21.73;11.60;;;;;;;-2.12;100.00;102521.00;2613496;31;20038;-60
2022/12/18 10:43:28;;;;;;;25.02;11.90;;;;;;;-2.15;100.00;102513.09;2615507;36;20398;-61
2022/12/18 10:46:16;;;;;;;26.17;11.85;;;;;;;-2.25;100.00;102514.06;2614187;36;20023;-62
2022/12/18 10:48:55;;;;;;;22.38;10.68;;;;;;;-2.16;100.00;102521.91;2615271;36;20110;-61
2022/12/18 10:51:26;;;;;;;24.15;12.10;;;;;;;-2.03;100.00;102527.06;2612974;36;20029;-62
2022/12/18 10:53:58;;;;;;;22.95;12.02;;;;;;;-1.71;100.00;102539.94;2614390;36;20031;-62
2022/12/18 10:56:34;;;;;;;23.05;11.48;;;;;;;-1.72;100.00;102547.88;2615812;36;20022;-61
2022/12/18 10:59:05;;;;;;;17.35;9.98;;;;;;;-1.82;100.00;102542.69;2615369;36;20439;-61
2022/12/18 11:01:49;;;;;;;21.13;11.10;;;;;;;-1.63;100.00;102526.69;2614088;36;20141;-61
2022/12/18 11:04:21;;;;;;;20.67;10.80;;;;;;;-1.64;100.00;102527.56;2614938;36;20081;-61
2022/12/18 11:07:01;;;;;;;21.80;11.95;;;;;;;-1.56;100.00;102522.19;2615342;36;20042;-61
2022/12/18 11:09:31;;;;;;;24.38;11.30;;;;;;;-1.75;100.00;102517.13;2615415;36;20069;-62
2022/12/18 11:12:06;;;;;;;26.90;10.50;;;;;;;-1.51;100.00;102515.09;2615702;36;20080;-61
2022/12/18 11:14:37;;;;;;;22.17;11.10;;;;;;;-1.39;100.00;102524.66;2615499;36;20134;-61
2022/12/18 11:17:05;;;;;;;22.20;11.00;;;;;;;-1.32;100.00;102505.19;2615533;36;20447;-62
2022/12/18 11:19:36;;;;;;;20.20;10.70;;;;;;;-1.26;100.00;102499.84;2615205;36;20026;-61
2022/12/18 11:22:20;;;;;;;18.90;9.98;;;;;;;-1.26;100.00;102483.97;2615956;36;20540;-62
2022/12/18 11:24:56;;;;;;;20.10;9.95;;;;;;;-1.36;100.00;102483.22;2613475;36;20041;-61
2022/12/18 11:27:27;;;;;;;21.00;9.55;;;;;;;-1.29;100.00;102473.47;2614913;36;20034;-61
2022/12/18 11:30:09;;;;;;;19.30;10.52;;;;;;;-1.12;100.00;102474.09;2615171;36;20031;-62
2022/12/18 11:32:40;;;;;;;18.55;9.90;;;;;;;-1.18;100.00;102466.25;2615053;36;20030;-61